createdAt,value
2023-05-13T00:01:23.565Z,12.80
2023-05-13T00:03:53.724Z,12.70
2023-05-13T00:06:23.944Z,12.70
2023-05-13T00:08:52.983Z,12.80
2023-05-13T00:11:23.205Z,12.80
2023-05-13T00:13:57.460Z,12.80
2023-05-13T00:16:28.890Z,12.80
2023-05-13T00:18:59.063Z,12.80
2023-05-13T00:21:28.123Z,12.80
2023-05-13T00:23:55.594Z,12.80
2023-05-13T00:26:22.701Z,12.80
2023-05-13T00:28:50.684Z,12.80
2023-05-13T00:31:19.692Z,12.80
2023-05-13T00:33:46.916Z,12.80
2023-05-13T00:36:20.019Z,12.80
2023-05-13T00:38:59.185Z,12.80
2023-05-13T00:41:26.232Z,12.80
2023-05-13T00:43:57.048Z,12.80
2023-05-13T00:46:24.776Z,12.80
2023-05-13T00:48:53.831Z,12.80
2023-05-13T00:51:21.960Z,12.80
2023-05-13T00:53:51.812Z,12.80
2023-05-13T00:56:22.142Z,12.80
2023-05-13T00:58:49.691Z,12.80
2023-05-13T01:01:48.229Z,12.80
2023-05-13T01:04:50.147Z,12.80
2023-05-13T01:07:36.275Z,12.80
2023-05-13T01:10:21.817Z,12.80
2023-05-13T01:12:57.348Z,12.80
2023-05-13T01:15:27.166Z,12.80
2023-05-13T01:18:15.152Z,12.80
2023-05-13T01:20:46.463Z,12.80
2023-05-13T01:23:14.479Z,12.80
2023-05-13T01:25:45.509Z,12.80
2023-05-13T01:28:20.946Z,12.80
2023-05-13T01:30:51.566Z,12.80
2023-05-13T01:33:21.382Z,12.80
2023-05-13T01:35:52.946Z,12.70
2023-05-13T01:38:24.361Z,12.80
2023-05-13T01:40:52.572Z,12.80
2023-05-13T01:43:22.659Z,12.80
2023-05-13T01:45:49.840Z,12.80
2023-05-13T01:48:19.907Z,12.80
2023-05-13T01:50:47.039Z,12.80
2023-05-13T01:53:14.172Z,12.80
2023-05-13T01:55:42.178Z,12.70
2023-05-13T01:58:10.545Z,12.70
2023-05-13T02:00:40.603Z,12.70
2023-05-13T02:03:07.737Z,12.70
2023-05-13T02:05:34.745Z,12.70
2023-05-13T02:08:04.880Z,12.70
2023-05-13T02:10:33.054Z,12.80
2023-05-13T02:13:04.065Z,12.80
2023-05-13T02:15:33.053Z,12.80
2023-05-13T02:18:00.041Z,12.80
2023-05-13T02:20:30.180Z,12.70
2023-05-13T02:23:00.258Z,12.70
2023-05-13T02:25:30.314Z,12.70
2023-05-13T02:27:58.373Z,12.70
2023-05-13T02:30:27.470Z,12.70
2023-05-13T02:33:01.258Z,12.70
2023-05-13T02:35:30.607Z,12.70
2023-05-13T02:38:01.018Z,12.70
2023-05-13T02:40:31.140Z,12.70
2023-05-13T02:42:58.139Z,12.70
2023-05-13T02:45:32.375Z,12.70
2023-05-13T02:48:01.391Z,12.70
2023-05-13T02:50:31.501Z,12.70
2023-05-13T02:52:59.573Z,12.70
2023-05-13T02:55:26.682Z,12.70
2023-05-13T02:57:53.644Z,12.60
2023-05-13T03:00:21.122Z,12.70
2023-05-13T03:02:49.346Z,12.70
2023-05-13T03:05:19.499Z,12.60
2023-05-13T03:07:49.565Z,12.60
2023-05-13T03:10:19.805Z,12.60
2023-05-13T03:12:48.944Z,12.60
2023-05-13T03:15:17.137Z,12.60
2023-05-13T03:17:47.242Z,12.60
2023-05-13T03:20:17.642Z,12.50
2023-05-13T03:22:44.919Z,12.50
2023-05-13T03:25:11.952Z,12.50
2023-05-13T03:27:39.247Z,12.50
2023-05-13T03:30:06.870Z,12.50
2023-05-13T03:32:35.650Z,12.50
2023-05-13T03:35:02.688Z,12.50
2023-05-13T03:37:29.656Z,12.50
2023-05-13T03:39:59.682Z,12.50
2023-05-13T03:42:26.810Z,12.50
2023-05-13T03:44:53.787Z,12.50
2023-05-13T03:47:21.029Z,12.50
2023-05-13T03:49:48.957Z,12.50
2023-05-13T03:52:16.912Z,12.50
2023-05-13T03:54:46.982Z,12.50
2023-05-13T03:57:14.032Z,12.50
2023-05-13T03:59:43.013Z,12.50
2023-05-13T04:02:10.159Z,12.50
2023-05-13T04:04:37.174Z,12.50
2023-05-13T04:07:21.447Z,12.50
2023-05-13T04:09:50.640Z,12.50
2023-05-13T04:12:21.814Z,12.50
2023-05-13T04:14:51.933Z,12.50
2023-05-13T04:17:20.964Z,12.40
2023-05-13T04:19:54.898Z,12.50
2023-05-13T04:22:24.539Z,12.50
2023-05-13T04:24:58.575Z,12.50
2023-05-13T04:27:26.853Z,12.50
2023-05-13T04:29:57.083Z,12.50
2023-05-13T04:32:24.159Z,12.50
2023-05-13T04:34:55.267Z,12.50
2023-05-13T04:37:23.570Z,12.50
2023-05-13T04:39:53.758Z,12.50
2023-05-13T04:42:21.761Z,12.50
2023-05-13T04:44:51.133Z,12.50
2023-05-13T04:47:19.438Z,12.50
2023-05-13T04:49:47.628Z,12.50
2023-05-13T04:52:16.176Z,12.50
2023-05-13T04:54:46.355Z,12.50
2023-05-13T04:57:14.301Z,12.60
2023-05-13T04:59:44.325Z,12.60
2023-05-13T05:02:14.405Z,12.60
2023-05-13T05:04:43.408Z,12.60
2023-05-13T05:07:11.415Z,12.60
2023-05-13T05:09:40.452Z,12.60
2023-05-13T05:12:08.031Z,12.70
2023-05-13T05:14:36.100Z,12.70
2023-05-13T05:17:03.093Z,12.70
2023-05-13T05:19:30.171Z,12.70
2023-05-13T05:21:59.245Z,12.70
2023-05-13T05:24:29.455Z,12.70
2023-05-13T05:26:57.431Z,12.70
2023-05-13T05:29:24.595Z,12.70
2023-05-13T05:31:51.641Z,12.80
2023-05-13T05:34:18.777Z,12.80
2023-05-13T05:36:48.772Z,12.80
2023-05-13T05:39:17.804Z,12.80
2023-05-13T05:41:44.851Z,12.80
2023-05-13T05:44:13.558Z,12.80
2023-05-13T05:46:40.610Z,12.80
2023-05-13T05:49:08.939Z,12.80
2023-05-13T05:51:36.153Z,12.80
2023-05-13T05:54:03.213Z,12.80
2023-05-13T05:56:32.582Z,12.80
2023-05-13T05:59:01.524Z,12.70
2023-05-13T06:01:33.282Z,12.70
2023-05-13T06:04:04.462Z,12.60
2023-05-13T06:06:32.449Z,12.60
2023-05-13T06:08:59.596Z,12.60
2023-05-13T06:11:29.770Z,12.70
2023-05-13T06:13:58.199Z,12.80
2023-05-13T06:16:25.585Z,12.80
2023-05-13T06:18:52.787Z,12.90
2023-05-13T06:21:21.039Z,13.00
2023-05-13T06:23:49.028Z,13.00
2023-05-13T06:26:17.099Z,13.10
2023-05-13T06:28:44.112Z,13.10
2023-05-13T06:31:17.968Z,13.10
2023-05-13T06:33:48.012Z,13.10
2023-05-13T06:36:18.158Z,13.10
2023-05-13T06:38:51.338Z,13.10
2023-05-13T06:41:21.446Z,13.10
2023-05-13T06:43:50.444Z,13.10
2023-05-13T06:46:20.606Z,13.10
2023-05-13T06:48:52.317Z,13.10
2023-05-13T06:51:22.507Z,13.20
2023-05-13T06:53:49.514Z,13.20
2023-05-13T06:56:17.612Z,13.30
2023-05-13T06:58:46.546Z,13.40
2023-05-13T07:01:19.822Z,13.50
2023-05-13T07:03:47.921Z,13.50
2023-05-13T07:06:15.968Z,13.60
2023-05-13T07:08:44.966Z,13.70
2023-05-13T07:11:13.106Z,13.80
2023-05-13T07:13:40.173Z,13.90
2023-05-13T07:16:08.184Z,14.00
2023-05-13T07:18:36.275Z,14.10
2023-05-13T07:21:03.336Z,14.30
2023-05-13T07:23:36.375Z,14.30
2023-05-13T07:26:03.549Z,14.40
2023-05-13T07:28:33.587Z,14.50
2023-05-13T07:31:00.866Z,14.60
2023-05-13T07:33:28.342Z,14.70
2023-05-13T07:35:56.383Z,14.80
2023-05-13T07:38:23.612Z,14.80
2023-05-13T07:40:50.946Z,14.90
2023-05-13T07:43:24.070Z,15.00
2023-05-13T07:45:52.231Z,15.00
2023-05-13T07:48:20.374Z,15.10
2023-05-13T07:50:49.920Z,15.10
2023-05-13T07:53:20.395Z,15.20
2023-05-13T07:55:48.485Z,15.30
2023-05-13T07:58:20.325Z,15.50
2023-05-13T08:00:49.865Z,15.60
2023-05-13T08:03:19.083Z,15.50
2023-05-13T08:05:48.265Z,15.60
2023-05-13T08:08:15.415Z,15.70
2023-05-13T08:10:42.460Z,15.80
2023-05-13T08:13:09.431Z,16.00
2023-05-13T08:15:38.402Z,16.10
2023-05-13T08:18:07.492Z,16.20
2023-05-13T08:20:37.640Z,16.40
2023-05-13T08:23:07.724Z,16.50
2023-05-13T08:25:37.832Z,16.40
2023-05-13T08:28:10.777Z,16.40
2023-05-13T08:30:44.231Z,16.50
2023-05-13T08:33:12.589Z,16.50
2023-05-13T08:35:42.967Z,16.50
2023-05-13T08:38:13.049Z,16.50
2023-05-13T08:40:42.942Z,16.50
2023-05-13T08:43:14.460Z,16.40
2023-05-13T08:45:45.115Z,16.40
2023-05-13T08:48:16.438Z,16.40
2023-05-13T08:50:46.054Z,16.30
2023-05-13T08:53:13.336Z,16.30
2023-05-13T08:55:43.469Z,16.40
2023-05-13T08:58:13.620Z,16.50
2023-05-13T09:00:43.847Z,16.60
2023-05-13T09:03:13.172Z,16.60
2023-05-13T09:05:42.140Z,16.60
2023-05-13T09:08:11.160Z,16.50
2023-05-13T09:10:38.704Z,16.60
2023-05-13T09:13:07.708Z,16.50
2023-05-13T09:15:36.680Z,16.40
2023-05-13T09:18:08.140Z,16.40
2023-05-13T09:20:35.966Z,16.50
2023-05-13T09:23:07.306Z,16.50
2023-05-13T09:25:38.776Z,16.40
2023-05-13T09:28:07.983Z,16.30
2023-05-13T09:30:38.651Z,16.20
2023-05-13T09:33:15.763Z,16.10
2023-05-13T09:35:54.575Z,16.10
2023-05-13T09:38:34.824Z,16.10
2023-05-13T09:41:11.893Z,16.20
2023-05-13T09:43:40.189Z,16.20
2023-05-13T09:46:11.042Z,16.10
2023-05-13T09:48:43.940Z,16.10
2023-05-13T09:51:16.138Z,15.90
2023-05-13T09:53:48.038Z,15.80
2023-05-13T09:56:22.324Z,15.80
2023-05-13T09:58:56.037Z,15.80
2023-05-13T10:01:28.679Z,15.80
2023-05-13T10:03:57.080Z,15.70
2023-05-13T10:06:30.472Z,15.70
2023-05-13T10:09:04.135Z,15.60
2023-05-13T10:11:35.441Z,15.30
2023-05-13T10:14:06.252Z,15.20
2023-05-13T10:16:34.496Z,15.10
2023-05-13T10:19:07.875Z,15.10
2023-05-13T10:21:37.011Z,15.20
2023-05-13T10:24:05.272Z,15.40
2023-05-13T10:26:32.989Z,15.30
2023-05-13T10:29:00.717Z,15.20
2023-05-13T10:31:28.729Z,15.10
2023-05-13T10:33:56.198Z,15.00
2023-05-13T10:36:42.674Z,15.00
2023-05-13T10:39:49.725Z,15.10
2023-05-13T10:42:56.682Z,15.00
2023-05-13T10:45:27.689Z,15.00
2023-05-13T10:47:56.662Z,15.00
2023-05-13T10:50:26.394Z,15.10
2023-05-13T10:52:58.699Z,15.30
2023-05-13T10:55:30.043Z,15.50
2023-05-13T10:58:07.682Z,15.40
2023-05-13T11:00:38.993Z,15.30
2023-05-13T11:03:29.151Z,15.20
2023-05-13T11:06:16.076Z,15.10
2023-05-13T11:08:48.308Z,15.00
2023-05-13T11:11:23.171Z,15.20
2023-05-13T11:14:02.369Z,15.40
2023-05-13T11:16:31.390Z,15.50
2023-05-13T11:18:59.383Z,15.50
2023-05-13T11:21:53.141Z,15.70
2023-05-13T11:24:21.869Z,16.00
2023-05-13T11:26:57.615Z,16.20
2023-05-13T11:29:34.766Z,16.10
2023-05-13T11:32:03.970Z,16.00
2023-05-13T11:34:32.175Z,16.00
2023-05-13T11:37:10.532Z,16.00
2023-05-13T11:39:41.295Z,16.00
2023-05-13T11:42:11.495Z,15.90
2023-05-13T11:44:47.768Z,15.80
2023-05-13T11:47:27.277Z,16.00
2023-05-13T11:49:55.987Z,16.20
2023-05-13T11:52:23.180Z,16.20
2023-05-13T11:54:55.741Z,16.30
2023-05-13T11:57:32.915Z,16.30
2023-05-13T12:00:02.128Z,16.30
2023-05-13T12:02:44.739Z,16.30
2023-05-13T12:05:12.698Z,16.50
2023-05-13T12:07:41.735Z,16.60
2023-05-13T12:10:09.429Z,16.70
2023-05-13T12:12:43.205Z,16.60
2023-05-13T12:15:19.773Z,16.50
2023-05-13T12:17:47.969Z,16.40
2023-05-13T12:20:16.934Z,16.50
2023-05-13T12:22:44.020Z,16.40
2023-05-13T12:25:35.391Z,16.30
2023-05-13T12:28:24.436Z,16.30
2023-05-13T12:31:06.015Z,16.30
2023-05-13T12:33:40.963Z,16.30
2023-05-13T12:36:18.684Z,16.30
2023-05-13T12:39:00.727Z,16.30
2023-05-13T12:41:35.262Z,16.30
2023-05-13T12:44:07.848Z,16.20
2023-05-13T12:46:35.560Z,16.20
2023-05-13T12:49:05.135Z,16.20
2023-05-13T12:51:34.388Z,16.20
2023-05-13T12:54:01.855Z,16.30
2023-05-13T12:56:31.356Z,16.30
2023-05-13T12:58:58.933Z,16.30
2023-05-13T13:01:27.159Z,16.20
2023-05-13T13:03:56.633Z,16.30
2023-05-13T13:06:26.128Z,16.30
2023-05-13T13:08:53.299Z,16.30
2023-05-13T13:11:21.714Z,16.30
2023-05-13T13:13:54.771Z,16.20
2023-05-13T13:16:22.139Z,16.30
2023-05-13T13:18:55.044Z,16.30
2023-05-13T13:21:26.283Z,16.40
2023-05-13T13:23:56.390Z,16.40
2023-05-13T13:26:24.476Z,16.40
2023-05-13T13:28:52.918Z,16.40
2023-05-13T13:31:20.166Z,16.30
2023-05-13T13:33:48.176Z,16.30
2023-05-13T13:36:15.122Z,16.20
2023-05-13T13:38:45.392Z,16.20
2023-05-13T13:41:15.650Z,16.10
2023-05-13T13:43:44.635Z,15.90
2023-05-13T13:46:12.394Z,15.90
2023-05-13T13:48:40.525Z,16.00
2023-05-13T13:51:07.529Z,16.00
2023-05-13T13:53:34.623Z,16.00
2023-05-13T13:56:02.850Z,16.00
2023-05-13T13:58:29.897Z,16.00
2023-05-13T14:01:00.021Z,16.00
2023-05-13T14:03:27.105Z,15.90
2023-05-13T14:05:55.377Z,15.80
2023-05-13T14:08:22.295Z,15.80
2023-05-13T14:10:49.405Z,15.80
2023-05-13T14:13:16.354Z,15.80
2023-05-13T14:15:43.317Z,15.90
2023-05-13T14:18:11.537Z,15.90
2023-05-13T14:20:41.986Z,15.90
2023-05-13T14:23:08.953Z,15.90
2023-05-13T14:25:36.061Z,15.90
2023-05-13T14:28:02.986Z,15.90
2023-05-13T14:30:30.033Z,15.90
2023-05-13T14:33:03.171Z,16.00
2023-05-13T14:35:34.364Z,15.90
2023-05-13T14:38:04.520Z,15.90
2023-05-13T14:40:34.470Z,16.00
2023-05-13T14:43:01.520Z,16.00
2023-05-13T14:45:31.950Z,16.00
2023-05-13T14:48:01.463Z,15.90
2023-05-13T14:50:30.472Z,15.80
2023-05-13T14:53:00.840Z,15.60
2023-05-13T14:55:27.799Z,15.60
2023-05-13T14:57:55.853Z,15.60
2023-05-13T15:00:24.069Z,15.70
2023-05-13T15:02:54.467Z,15.60
2023-05-13T15:05:26.673Z,15.50
2023-05-13T15:07:53.835Z,15.40
2023-05-13T15:10:21.032Z,15.30
2023-05-13T15:12:50.257Z,15.30
2023-05-13T15:15:19.426Z,15.30
2023-05-13T15:17:49.463Z,15.30
2023-05-13T15:20:19.806Z,15.30
2023-05-13T15:22:46.978Z,15.20
2023-05-13T15:25:17.085Z,15.10
2023-05-13T15:27:47.957Z,15.00
2023-05-13T15:30:15.115Z,14.90
2023-05-13T15:32:44.247Z,14.80
2023-05-13T15:35:12.230Z,14.70
2023-05-13T15:37:42.692Z,14.70
2023-05-13T15:40:12.227Z,14.70
2023-05-13T15:42:42.264Z,14.60
2023-05-13T15:45:12.443Z,14.60
2023-05-13T15:47:40.788Z,14.50
2023-05-13T15:50:11.270Z,14.40
2023-05-13T15:52:41.316Z,14.40
2023-05-13T15:55:08.251Z,14.30
2023-05-13T15:57:41.342Z,14.20
2023-05-13T16:00:12.212Z,14.10
2023-05-13T16:02:39.939Z,14.00
2023-05-13T16:05:15.432Z,13.90
2023-05-13T16:07:45.632Z,13.90
2023-05-13T16:10:14.076Z,13.90
2023-05-13T16:12:47.024Z,13.90
2023-05-13T16:15:17.926Z,13.90
2023-05-13T16:17:45.086Z,13.90
2023-05-13T16:20:13.329Z,13.80
2023-05-13T16:22:40.777Z,13.80
2023-05-13T16:25:09.116Z,13.70
2023-05-13T16:27:39.937Z,13.70
2023-05-13T16:30:07.828Z,13.60
2023-05-13T16:32:36.249Z,13.60
2023-05-13T16:35:04.760Z,13.50
2023-05-13T16:37:34.574Z,13.50
2023-05-13T16:40:01.708Z,13.50
2023-05-13T16:42:30.674Z,13.40
2023-05-13T16:45:06.087Z,13.40
2023-05-13T16:47:34.449Z,13.40
2023-05-13T16:50:02.528Z,13.40
2023-05-13T16:52:32.651Z,13.30
2023-05-13T16:55:03.169Z,13.30
2023-05-13T16:57:30.479Z,13.20
2023-05-13T17:00:00.669Z,13.10
2023-05-13T17:02:34.067Z,13.10
2023-05-13T17:05:04.842Z,13.10
2023-05-13T17:07:32.942Z,13.00
2023-05-13T17:10:03.097Z,13.00
2023-05-13T17:12:31.122Z,12.90
2023-05-13T17:15:00.115Z,12.80
2023-05-13T17:17:27.176Z,12.80
2023-05-13T17:19:55.401Z,12.80
2023-05-13T17:22:25.542Z,12.80
2023-05-13T17:24:56.128Z,12.80
2023-05-13T17:27:23.128Z,12.80
2023-05-13T17:29:50.132Z,12.70
2023-05-13T17:32:20.306Z,12.70
2023-05-13T17:34:48.451Z,12.70
2023-05-13T17:37:16.830Z,12.60
2023-05-13T17:39:46.863Z,12.60
2023-05-13T17:42:15.920Z,12.50
2023-05-13T17:44:46.279Z,12.50
2023-05-13T17:47:16.471Z,12.50
2023-05-13T17:49:43.462Z,12.40
2023-05-13T17:52:10.565Z,12.40
2023-05-13T17:54:37.873Z,12.30
2023-05-13T17:57:05.107Z,12.30
2023-05-13T17:59:32.042Z,12.20
2023-05-13T18:02:00.184Z,12.20
2023-05-13T18:04:27.431Z,12.20
2023-05-13T18:06:57.550Z,12.10
2023-05-13T18:09:27.681Z,12.10
2023-05-13T18:11:56.661Z,12.10
2023-05-13T18:14:24.664Z,12.10
2023-05-13T18:16:51.787Z,12.10
2023-05-13T18:19:18.830Z,12.00
2023-05-13T18:21:48.874Z,12.00
2023-05-13T18:24:17.839Z,12.00
2023-05-13T18:26:45.786Z,11.90
2023-05-13T18:29:16.088Z,11.90
2023-05-13T18:31:46.214Z,11.90
2023-05-13T18:34:19.382Z,11.90
2023-05-13T18:36:51.938Z,11.90
2023-05-13T18:39:19.477Z,11.90
2023-05-13T18:41:49.811Z,11.90
2023-05-13T18:44:18.838Z,11.90
2023-05-13T18:46:46.011Z,11.80
2023-05-13T18:49:13.419Z,11.80
2023-05-13T18:51:45.393Z,11.80
2023-05-13T18:54:14.530Z,11.80
2023-05-13T18:56:42.343Z,11.80
2023-05-13T18:59:13.392Z,11.80
2023-05-13T19:01:43.566Z,11.80
2023-05-13T19:04:13.454Z,11.80
2023-05-13T19:06:42.588Z,11.80
2023-05-13T19:09:09.605Z,11.80
2023-05-13T19:11:37.678Z,11.80
2023-05-13T19:14:04.660Z,11.90
2023-05-13T19:16:33.803Z,11.80
2023-05-13T19:19:01.944Z,11.80
2023-05-13T19:21:32.098Z,11.80
2023-05-13T19:23:59.175Z,11.80
2023-05-13T19:26:32.522Z,11.80
2023-05-13T19:29:01.956Z,11.80
2023-05-13T19:31:29.684Z,11.80
2023-05-13T19:34:01.458Z,11.80
2023-05-13T19:36:31.880Z,11.80
2023-05-13T19:39:01.912Z,11.70
2023-05-13T19:41:49.033Z,11.70
2023-05-13T19:44:17.215Z,11.70
2023-05-13T19:46:44.355Z,11.70
2023-05-13T19:49:13.457Z,11.80
2023-05-13T19:51:40.486Z,11.80
2023-05-13T19:54:09.563Z,11.80
2023-05-13T19:56:40.441Z,11.70
2023-05-13T19:59:10.667Z,11.70
2023-05-13T20:01:39.810Z,11.70
2023-05-13T20:04:07.156Z,11.80
2023-05-13T20:06:35.304Z,11.70
2023-05-13T20:09:05.956Z,11.80
2023-05-13T20:11:32.979Z,11.80
2023-05-13T20:14:03.082Z,11.80
2023-05-13T20:16:32.074Z,11.80
2023-05-13T20:19:02.410Z,11.80
2023-05-13T20:21:29.444Z,11.80
2023-05-13T20:23:57.808Z,11.70
2023-05-13T20:26:27.105Z,11.70
2023-05-13T20:28:54.199Z,11.70
2023-05-13T20:31:24.614Z,11.70
2023-05-13T20:33:52.763Z,11.70
2023-05-13T20:36:19.804Z,11.80
2023-05-13T20:38:48.812Z,11.70
2023-05-13T20:41:15.768Z,11.70
2023-05-13T20:43:45.842Z,11.60
2023-05-13T20:46:17.102Z,11.60
2023-05-13T20:48:45.782Z,11.60
2023-05-13T20:51:13.938Z,11.50
2023-05-13T20:53:41.958Z,11.50
2023-05-13T20:56:10.148Z,11.50
2023-05-13T20:58:40.230Z,11.50
2023-05-13T21:01:08.196Z,11.50
2023-05-13T21:03:38.375Z,11.50
2023-05-13T21:06:05.702Z,11.50
2023-05-13T21:08:37.040Z,11.50
2023-05-13T21:11:04.398Z,11.50
2023-05-13T21:13:31.440Z,11.50
2023-05-13T21:16:04.439Z,11.40
2023-05-13T21:18:34.206Z,11.40
2023-05-13T21:21:03.026Z,11.40
2023-05-13T21:23:30.088Z,11.40
2023-05-13T21:25:58.997Z,11.50
2023-05-13T21:28:25.896Z,11.50
2023-05-13T21:30:52.875Z,11.50
2023-05-13T21:33:19.868Z,11.50
2023-05-13T21:35:50.097Z,11.50
2023-05-13T21:38:17.145Z,11.50
2023-05-13T21:40:45.245Z,11.50
2023-05-13T21:43:12.347Z,11.50
2023-05-13T21:45:40.687Z,11.60
2023-05-13T21:48:08.951Z,11.60
2023-05-13T21:50:36.952Z,11.50
2023-05-13T21:53:05.123Z,11.50
2023-05-13T21:55:35.029Z,11.50
2023-05-13T21:58:03.066Z,11.50
2023-05-13T22:00:30.324Z,11.50
2023-05-13T22:03:00.553Z,11.50
2023-05-13T22:05:28.302Z,11.50
2023-05-13T22:07:55.398Z,11.50
2023-05-13T22:10:22.783Z,11.50
2023-05-13T22:12:49.939Z,11.50
2023-05-13T22:15:18.996Z,11.50
2023-05-13T22:17:50.766Z,11.50
2023-05-13T22:20:18.983Z,11.50
2023-05-13T22:22:46.897Z,11.60
2023-05-13T22:25:17.035Z,11.50
2023-05-13T22:27:48.660Z,11.50
2023-05-13T22:30:15.772Z,11.50
2023-05-13T22:32:46.039Z,11.50
2023-05-13T22:35:16.297Z,11.50
2023-05-13T22:37:46.418Z,11.50
2023-05-13T22:40:13.910Z,11.50
2023-05-13T22:42:40.956Z,11.50
2023-05-13T22:45:08.498Z,11.60
2023-05-13T22:47:39.297Z,11.60
2023-05-13T22:50:07.114Z,11.50
2023-05-13T22:52:37.215Z,11.50
2023-05-13T22:55:04.377Z,11.50
2023-05-13T22:57:34.592Z,11.50
2023-05-13T23:00:03.177Z,11.40
2023-05-13T23:02:31.342Z,11.40
2023-05-13T23:04:59.306Z,11.50
2023-05-13T23:07:29.428Z,11.50
2023-05-13T23:09:58.434Z,11.50
2023-05-13T23:12:28.432Z,11.50
2023-05-13T23:14:55.575Z,11.50
2023-05-13T23:17:25.818Z,11.40
2023-05-13T23:19:52.771Z,11.40
2023-05-13T23:22:22.902Z,11.40
2023-05-13T23:24:52.979Z,11.40
2023-05-13T23:27:21.046Z,11.40
2023-05-13T23:29:47.986Z,11.40
2023-05-13T23:32:19.147Z,11.40
2023-05-13T23:34:47.162Z,11.40
2023-05-13T23:37:16.105Z,11.50
2023-05-13T23:39:44.932Z,11.40
2023-05-13T23:42:14.903Z,11.40
2023-05-13T23:44:45.048Z,11.40
2023-05-13T23:47:13.621Z,11.40
2023-05-13T23:49:41.596Z,11.40
2023-05-13T23:52:09.566Z,11.40
2023-05-13T23:54:39.580Z,11.40
2023-05-13T23:57:09.742Z,11.40
2023-05-13T23:59:36.775Z,11.40
